Time;durP1;ratioP1;P1;durP2;ratioP2;P2;SDS_P1;SDS_P2;PMS_P1;PMS_P2;Temp;Humidity;BMP_temperature;BMP_pressure;BME280_temperature;BME280_humidity;BME280_pressure;Samples;Min_cycle;Max_cycle;Signal;HPM_P1;HPM_P2
2023/01/07 00:03:13;;;;;;;1999.90;999.90;;;;;;;10.61;100.00;101575.97;10340366;28;20089;-67
2023/01/07 00:08:16;;;;;;;1999.90;999.90;;;;;;;10.42;100.00;101565.44;10338272;28;20564;-67
2023/01/07 00:13:18;;;;;;;1999.90;999.90;;;;;;;10.39;100.00;101557.75;10339867;28;20058;-67
2023/01/07 00:18:20;;;;;;;1999.90;999.90;;;;;;;10.51;100.00;101561.59;10338701;28;20284;-67
2023/01/07 00:23:23;;;;;;;1999.90;999.90;;;;;;;10.44;100.00;101542.69;10338303;28;20133;-67
2023/01/07 00:28:25;;;;;;;1999.90;999.90;;;;;;;10.28;100.00;101547.72;10369440;28;20449;-68
2023/01/07 00:33:28;;;;;;;1999.90;999.90;;;;;;;10.14;100.00;101544.84;10370529;28;20101;-67
2023/01/07 00:38:30;;;;;;;1999.90;999.90;;;;;;;10.40;100.00;101528.84;10339003;28;20046;-67
2023/01/07 00:43:33;;;;;;;1999.90;999.90;;;;;;;10.10;100.00;101528.41;10337452;28;20540;-67
2023/01/07 00:48:35;;;;;;;1999.90;999.90;;;;;;;10.25;100.00;101524.28;10338286;28;20050;-67
2023/01/07 00:53:37;;;;;;;1999.90;999.90;;;;;;;10.12;100.00;101526.59;10337726;28;20054;-67
2023/01/07 00:58:40;;;;;;;1999.90;999.90;;;;;;;10.25;100.00;101510.34;10353181;28;20103;-67
2023/01/07 01:03:43;;;;;;;1999.90;999.90;;;;;;;10.31;100.00;101510.94;10367860;28;20449;-67
2023/01/07 01:08:46;;;;;;;1999.90;999.90;;;;;;;10.21;100.00;101504.41;10367479;28;20049;-67
2023/01/07 01:13:48;;;;;;;1999.90;999.90;;;;;;;10.35;100.00;101502.03;10368141;28;20386;-67
2023/01/07 01:18:50;;;;;;;1999.90;999.90;;;;;;;10.36;100.00;101501.13;10344949;22;20489;-66
2023/01/07 01:23:53;;;;;;;1999.90;999.90;;;;;;;10.28;100.00;101500.59;10336618;28;20504;-66
2023/01/07 01:28:55;;;;;;;1999.90;999.90;;;;;;;10.36;100.00;101500.28;10335295;28;20478;-66
2023/01/07 01:33:58;;;;;;;1999.90;999.90;;;;;;;10.08;100.00;101495.41;10336843;28;20054;-66
2023/01/07 01:39:01;;;;;;;1999.90;999.90;;;;;;;9.87;100.00;101492.81;10336152;28;20129;-66
2023/01/07 01:44:46;;;;;;;1999.90;999.90;;;;;;;10.20;100.00;101495.72;10334973;28;20520;-66
2023/01/07 01:49:56;;;;;;;1999.90;999.90;;;;;;;9.99;100.00;101491.44;10294863;28;20050;-66
2023/01/07 01:55:00;;;;;;;1999.90;999.90;;;;;;;10.06;100.00;101486.78;10310191;28;20050;-66
2023/01/07 02:00:05;;;;;;;1999.90;999.90;;;;;;;10.19;100.00;101496.63;10317106;28;20046;-66
2023/01/07 02:05:08;;;;;;;1999.90;999.90;;;;;;;10.18;100.00;101496.69;10331115;28;20493;-66
2023/01/07 02:10:19;;;;;;;1999.90;999.90;;;;;;;10.34;100.00;101489.88;10333527;28;20101;-66
2023/01/07 02:15:34;;;;;;;;;;;;;;;10.26;100.00;101478.03;10334019;28;20050;-66
2023/01/07 02:20:51;;;;;;;1999.90;999.90;;;;;;;10.23;100.00;101490.31;10333954;28;19929;-66
2023/01/07 02:26:12;;;;;;;1999.90;999.90;;;;;;;9.92;100.00;101490.84;10331157;28;20096;-67
2023/01/07 02:32:00;;;;;;;1999.90;999.90;;;;;;;10.00;100.00;101478.28;10334099;28;20660;-66
2023/01/07 02:37:20;;;;;;;1999.90;999.90;;;;;;;10.00;100.00;101477.41;10328362;28;20052;-66
2023/01/07 02:42:25;;;;;;;1999.90;999.90;;;;;;;9.96;100.00;101483.72;10332757;28;20055;-66
2023/01/07 02:47:36;;;;;;;1999.90;999.90;;;;;;;9.94;100.00;101477.72;10330000;28;20069;-67
2023/01/07 02:52:39;;;;;;;1999.90;999.90;;;;;;;10.11;100.00;101476.97;10332246;28;20057;-66
2023/01/07 02:58:09;;;;;;;1999.90;999.90;;;;;;;9.99;100.00;101465.28;10333530;28;20496;-66
2023/01/07 03:03:34;;;;;;;1999.90;999.90;;;;;;;9.91;100.00;101449.91;10331578;28;20125;-66
2023/01/07 03:08:42;;;;;;;1999.90;999.90;;;;;;;9.92;100.00;101453.34;10325217;28;20478;-66
2023/01/07 03:14:15;;;;;;;1999.90;999.90;;;;;;;9.84;100.00;101445.88;10333975;28;20050;-66
2023/01/07 03:19:24;;;;;;;1999.90;999.90;;;;;;;9.82;100.00;101434.63;10331233;28;20101;-66
2023/01/07 03:24:28;;;;;;;1999.90;999.90;;;;;;;9.74;100.00;101421.03;10329871;28;20050;-66
2023/01/07 03:29:31;;;;;;;1999.90;999.90;;;;;;;9.70;100.00;101422.94;10331584;28;20452;-66
2023/01/07 03:34:34;;;;;;;1999.90;999.90;;;;;;;9.75;100.00;101420.09;10331047;28;20530;-66
2023/01/07 03:39:38;;;;;;;1999.90;999.90;;;;;;;9.72;100.00;101425.50;10331828;28;20051;-66
2023/01/07 03:44:41;;;;;;;1999.90;999.90;;;;;;;9.58;100.00;101419.09;10331385;28;20113;-66
2023/01/07 03:49:43;;;;;;;1999.90;999.90;;;;;;;9.55;100.00;101418.34;10291988;28;20047;-66
2023/01/07 03:54:45;;;;;;;1999.90;999.90;;;;;;;9.71;100.00;101408.94;10292957;28;20101;-66
2023/01/07 03:59:47;;;;;;;1999.90;999.90;;;;;;;9.52;100.00;101410.66;10298266;28;20050;-66
2023/01/07 04:04:50;;;;;;;1999.90;999.90;;;;;;;9.44;100.00;101419.66;10339269;28;20100;-67
2023/01/07 04:09:52;;;;;;;1999.90;999.90;;;;;;;9.50;100.00;101402.91;10339450;28;20445;-66
2023/01/07 04:14:54;;;;;;;1999.90;999.90;;;;;;;9.48;100.00;101396.84;10337053;28;20441;-66
2023/01/07 04:20:00;;;;;;;1999.90;999.90;;;;;;;9.49;100.00;101386.34;10338249;28;20054;-66
2023/01/07 04:25:02;;;;;;;1999.90;999.90;;;;;;;9.44;100.00;101383.06;10338635;28;20046;-67
2023/01/07 04:30:05;;;;;;;1999.90;999.90;;;;;;;9.38;100.00;101375.53;10338171;28;20051;-66
2023/01/07 04:35:08;;;;;;;1999.90;999.90;;;;;;;9.46;100.00;101369.94;10339133;28;20046;-66
2023/01/07 04:40:10;;;;;;;1999.90;999.90;;;;;;;9.49;100.00;101365.44;10337030;28;20133;-66
2023/01/07 04:45:13;;;;;;;1999.90;999.90;;;;;;;9.48;100.00;101357.66;10337631;28;20050;-66
2023/01/07 04:50:15;;;;;;;1999.90;999.90;;;;;;;9.40;100.00;101349.31;10336711;28;20050;-66
2023/01/07 04:55:18;;;;;;;1999.90;999.90;;;;;;;9.58;100.00;101343.28;10336788;28;20532;-66
2023/01/07 05:00:20;;;;;;;1999.90;999.90;;;;;;;9.40;100.00;101331.03;10337579;28;20073;-66
2023/01/07 05:05:22;;;;;;;1999.90;999.90;;;;;;;9.38;100.00;101338.94;10334946;28;20105;-66
2023/01/07 05:10:25;;;;;;;1999.90;999.90;;;;;;;9.55;100.00;101335.56;10336922;28;20073;-66
2023/01/07 05:15:27;;;;;;;1999.90;999.90;;;;;;;9.47;100.00;101320.22;10337001;28;20065;-66
2023/01/07 05:20:29;;;;;;;1999.90;999.90;;;;;;;9.46;100.00;101323.78;10335221;28;20055;-66
2023/01/07 05:25:33;;;;;;;1999.90;999.90;;;;;;;9.54;100.00;101322.56;10336377;28;20046;-66
2023/01/07 05:30:35;;;;;;;1999.90;999.90;;;;;;;9.59;100.00;101313.59;10335756;28;20094;-66
2023/01/07 05:35:38;;;;;;;1999.90;999.90;;;;;;;9.58;100.00;101308.44;10336845;28;20081;-66
2023/01/07 05:40:41;;;;;;;1999.90;999.90;;;;;;;9.35;100.00;101317.31;10335716;28;20047;-66
2023/01/07 05:45:45;;;;;;;1999.90;999.90;;;;;;;9.43;100.00;101300.38;10334819;28;20564;-66
2023/01/07 05:50:47;;;;;;;1999.90;999.90;;;;;;;9.51;100.00;101307.03;10334220;28;20042;-66
2023/01/07 05:55:56;;;;;;;1999.90;999.90;;;;;;;9.65;100.00;101302.03;10336076;28;20051;-66
2023/01/07 06:00:58;;;;;;;1999.90;999.90;;;;;;;9.73;100.00;101307.72;10333945;28;20057;-66
2023/01/07 06:06:05;;;;;;;1999.90;999.90;;;;;;;9.86;100.00;101297.56;10331494;28;20069;-66
2023/01/07 06:11:08;;;;;;;1999.90;999.90;;;;;;;9.82;100.00;101294.25;10333734;28;20482;-66
2023/01/07 06:16:12;;;;;;;1999.90;999.90;;;;;;;9.81;100.00;101279.47;10334582;28;20047;-66
2023/01/07 06:21:15;;;;;;;1999.90;999.90;;;;;;;9.83;100.00;101285.50;10334367;28;20054;-66
2023/01/07 06:26:18;;;;;;;1999.90;999.90;;;;;;;9.74;100.00;101278.06;10333944;28;20051;-66
2023/01/07 06:31:20;;;;;;;1999.90;999.90;;;;;;;9.61;100.00;101267.31;10334674;28;20046;-66
2023/01/07 06:36:23;;;;;;;1999.90;999.90;;;;;;;9.88;100.00;101251.25;10333036;28;20077;-66
2023/01/07 06:41:25;;;;;;;1999.90;999.90;;;;;;;9.75;100.00;101252.75;10332906;28;20053;-66
2023/01/07 06:46:27;;;;;;;1999.90;999.90;;;;;;;9.79;100.00;101236.84;10331209;28;20105;-66
2023/01/07 06:51:30;;;;;;;1999.90;999.90;;;;;;;9.89;100.00;101239.06;10332421;28;20423;-66
2023/01/07 06:56:32;;;;;;;1999.90;999.90;;;;;;;9.84;100.00;101231.41;10334235;28;20054;-66
2023/01/07 07:01:35;;;;;;;1999.90;999.90;;;;;;;9.88;100.00;101216.41;10333797;28;20046;-66
2023/01/07 07:06:37;;;;;;;1999.90;999.90;;;;;;;9.87;100.00;101218.19;10327484;28;20050;-66
2023/01/07 07:11:40;;;;;;;1999.90;999.90;;;;;;;9.78;100.00;101202.94;10332032;28;20096;-66
2023/01/07 07:16:42;;;;;;;1999.90;999.90;;;;;;;9.88;100.00;101206.78;10347884;28;20054;-66
2023/01/07 07:21:46;;;;;;;1999.90;999.90;;;;;;;9.91;100.00;101204.03;10331911;28;20059;-65
2023/01/07 07:26:49;;;;;;;1999.90;999.90;;;;;;;9.81;100.00;101193.16;10331615;28;20421;-65
2023/01/07 07:31:51;;;;;;;1999.90;999.90;;;;;;;9.94;100.00;101190.81;10331639;28;20449;-65
2023/01/07 07:36:53;;;;;;;1999.90;999.90;;;;;;;9.74;100.00;101191.78;10333985;28;20065;-69
2023/01/07 07:41:56;;;;;;;1999.90;999.90;;;;;;;9.88;100.00;101192.88;10341293;28;20057;-69
2023/01/07 07:46:58;;;;;;;1999.90;999.90;;;;;;;9.94;100.00;101180.34;10340724;28;20050;-69
2023/01/07 07:52:00;;;;;;;1999.90;999.90;;;;;;;9.89;100.00;101178.91;10340658;28;20115;-69
2023/01/07 07:57:03;;;;;;;1999.90;999.90;;;;;;;9.84;100.00;101171.25;10338839;28;20498;-70
2023/01/07 08:02:07;;;;;;;1999.90;999.90;;;;;;;9.86;100.00;101167.63;10338720;28;20120;-69
2023/01/07 08:07:10;;;;;;;1999.90;999.90;;;;;;;9.90;100.00;101170.09;10339143;28;20060;-69
2023/01/07 08:12:13;;;;;;;1999.90;999.90;;;;;;;9.83;100.00;101161.72;10338240;28;20449;-69
2023/01/07 08:17:15;;;;;;;1999.90;999.90;;;;;;;9.88;100.00;101170.19;10338745;28;20104;-69
2023/01/07 08:22:17;;;;;;;1999.90;999.90;;;;;;;9.88;100.00;101169.34;10338992;28;20062;-69
2023/01/07 08:27:20;;;;;;;1999.90;999.90;;;;;;;9.91;100.00;101163.97;10338942;28;20544;-69
2023/01/07 08:32:22;;;;;;;1999.90;999.90;;;;;;;9.98;100.00;101157.50;10338614;28;20046;-69
2023/01/07 08:37:24;;;;;;;1999.90;999.90;;;;;;;9.82;100.00;101160.03;10339107;28;20061;-69
2023/01/07 08:42:28;;;;;;;1999.90;999.90;;;;;;;9.83;100.00;101152.13;10338321;28;20050;-69
2023/01/07 08:47:30;;;;;;;1999.90;999.90;;;;;;;9.80;100.00;101144.41;10337484;28;20050;-69
2023/01/07 08:52:33;;;;;;;1999.90;999.90;;;;;;;10.09;100.00;101141.28;10338513;28;20101;-69
2023/01/07 08:57:35;;;;;;;1999.90;999.90;;;;;;;10.04;100.00;101131.88;10338424;28;20062;-69
2023/01/07 09:02:37;;;;;;;1999.90;999.90;;;;;;;10.08;100.00;101132.56;10337591;28;20120;-69
2023/01/07 09:07:40;;;;;;;1999.90;999.90;;;;;;;10.09;100.00;101122.97;10338027;28;20050;-70
2023/01/07 09:12:42;;;;;;;1999.90;999.90;;;;;;;10.37;100.00;101120.69;10337723;28;20054;-69
2023/01/07 09:17:45;;;;;;;1999.90;999.90;;;;;;;10.35;100.00;101113.81;10334511;28;20073;-69
2023/01/07 09:22:47;;;;;;;1999.90;999.90;;;;;;;10.23;100.00;101104.81;10335730;28;20058;-69
2023/01/07 09:27:50;;;;;;;1999.90;999.90;;;;;;;10.39;100.00;101110.16;10334744;28;20086;-69
2023/01/07 09:32:52;;;;;;;1999.90;999.90;;;;;;;10.43;97.93;101106.44;10335320;28;20413;-69
2023/01/07 09:37:54;;;;;;;1999.90;999.90;;;;;;;10.71;100.00;101099.75;10336084;28;20050;-69
2023/01/07 09:43:16;;;;;;;1999.90;999.90;;;;;;;10.56;97.75;101101.41;10335482;28;20058;-70
2023/01/07 09:48:35;;;;;;;;;;;;;;;10.64;96.96;101098.38;10334076;28;20508;-69
2023/01/07 09:53:59;;;;;;;1999.90;999.90;;;;;;;10.66;94.44;101084.28;10334114;28;19925;-69
2023/01/07 09:59:04;;;;;;;1999.90;999.90;;;;;;;10.68;94.07;101076.34;10334454;28;20043;-69
2023/01/07 10:04:33;;;;;;;1999.90;999.90;;;;;;;10.75;93.82;101080.31;10334013;28;20056;-69
2023/01/07 10:10:05;;;;;;;1999.90;999.90;;;;;;;10.70;93.67;101062.22;10334815;28;20073;-69
2023/01/07 10:15:29;;;;;;;1999.90;999.90;;;;;;;10.77;91.42;101055.72;10334189;28;20054;-69
2023/01/07 10:20:52;;;;;;;1999.90;999.90;;;;;;;10.90;94.70;101045.44;10333809;28;20067;-69
2023/01/07 10:25:56;;;;;;;1999.90;999.90;;;;;;;10.99;91.19;101043.25;10331444;28;20413;-69
2023/01/07 10:30:58;;;;;;;1999.90;999.90;;;;;;;10.93;89.93;101031.34;10332748;28;20057;-69
2023/01/07 10:36:19;;;;;;;1999.90;999.90;;;;;;;11.24;90.35;101011.28;10332964;28;20058;-69
2023/01/07 10:41:43;;;;;;;1999.90;999.90;;;;;;;11.40;87.29;100998.97;10333840;28;20038;-69
2023/01/07 10:47:01;;;;;;;1999.90;999.90;;;;;;;11.65;86.20;100989.66;10333500;28;20050;-69
2023/01/07 10:52:12;;;;;;;1999.90;999.90;;;;;;;11.51;84.25;100967.72;10333678;28;20050;-70
2023/01/07 10:57:19;;;;;;;1999.90;999.90;;;;;;;11.66;85.34;100952.88;10331890;28;20061;-70
2023/01/07 11:02:25;;;;;;;1999.90;999.90;;;;;;;11.59;84.24;100946.31;10308206;28;20058;-69
2023/01/07 11:07:50;;;;;;;1999.90;999.90;;;;;;;12.26;82.37;100930.06;10316140;28;20058;-69
2023/01/07 11:13:11;;;;;;;1999.90;999.90;;;;;;;12.20;81.99;100927.81;10348666;28;20089;-69
2023/01/07 11:18:26;;;;;;;1999.90;999.90;;;;;;;12.14;79.80;100925.56;10339194;28;20062;-69
2023/01/07 11:23:49;;;;;;;1999.90;999.90;;;;;;;12.36;80.64;100918.03;10340987;28;20046;-69
2023/01/07 11:28:54;;;;;;;1999.90;999.90;;;;;;;11.81;80.42;100905.69;10341071;28;20051;-69
2023/01/07 11:33:56;;;;;;;1999.90;999.90;;;;;;;11.87;82.04;100897.44;10339361;28;20054;-69
2023/01/07 11:39:09;;;;;;;1999.90;999.90;;;;;;;11.90;79.83;100890.22;10377622;28;20050;-69
2023/01/07 11:44:15;;;;;;;1999.90;999.90;;;;;;;12.02;79.50;100877.28;10367585;28;20062;-69
2023/01/07 11:49:29;;;;;;;1999.90;999.90;;;;;;;11.98;77.97;100865.31;10337673;28;20093;-69
2023/01/07 11:54:32;;;;;;;1999.90;999.90;;;;;;;11.77;78.45;100849.06;10339067;28;20429;-69
2023/01/07 11:59:34;;;;;;;1999.90;999.90;;;;;;;11.77;77.95;100843.84;10339505;28;20054;-69
2023/01/07 12:04:36;;;;;;;1999.90;999.90;;;;;;;11.92;76.97;100850.81;10338535;28;20108;-69
2023/01/07 12:09:40;;;;;;;1999.90;999.90;;;;;;;12.33;77.60;100828.97;10336857;28;20054;-69
2023/01/07 12:14:46;;;;;;;1999.90;999.90;;;;;;;11.85;78.38;100813.59;10341319;28;20057;-69
2023/01/07 12:20:08;;;;;;;1999.90;999.90;;;;;;;11.81;78.21;100816.50;10352937;28;20104;-69
2023/01/07 12:25:29;;;;;;;1999.90;999.90;;;;;;;11.92;77.23;100793.09;10338088;28;20490;-69
2023/01/07 12:31:05;;;;;;;1999.90;999.90;;;;;;;11.98;78.15;100783.97;10338349;28;20093;-70
2023/01/07 12:36:28;;;;;;;1999.90;999.90;;;;;;;11.77;76.25;100778.25;10336732;28;20522;-68
2023/01/07 12:41:40;;;;;;;1999.90;999.90;;;;;;;11.64;76.95;100763.31;10336049;28;20398;-73
2023/01/07 12:46:53;;;;;;;1999.90;999.90;;;;;;;11.72;78.36;100747.09;10338986;28;20101;-73
2023/01/07 12:52:20;;;;;;;1999.90;999.90;;;;;;;11.60;77.64;100747.84;10308868;28;20050;-72
2023/01/07 12:57:33;;;;;;;1999.90;999.90;;;;;;;11.57;75.49;100730.53;10333219;28;20054;-72
2023/01/07 13:02:53;;;;;;;1999.90;999.90;;;;;;;11.85;76.33;100723.53;10333527;28;20050;-72
2023/01/07 13:07:55;;;;;;;1999.90;999.90;;;;;;;11.60;78.13;100716.38;10336454;28;20092;-73
2023/01/07 13:13:02;;;;;;;1999.90;999.90;;;;;;;11.69;76.42;100703.53;10335991;28;20448;-73
2023/01/07 13:18:10;;;;;;;1999.90;999.90;;;;;;;11.61;78.09;100684.81;10334616;28;20050;-72
2023/01/07 13:23:38;;;;;;;1999.90;999.90;;;;;;;11.36;77.83;100689.94;10334899;28;20053;-73
2023/01/07 13:29:14;;;;;;;1999.90;999.90;;;;;;;11.38;78.14;100673.19;10311839;28;20097;-72
2023/01/07 13:34:41;;;;;;;1999.90;999.90;;;;;;;11.37;77.43;100674.09;10342355;23;20524;-68
2023/01/07 13:40:04;;;;;;;1999.90;999.90;;;;;;;11.24;78.60;100667.94;10340874;28;20188;-64
2023/01/07 13:45:10;;;;;;;1999.90;999.90;;;;;;;11.28;78.41;100658.94;10334941;28;20046;-64
2023/01/07 13:50:24;;;;;;;1999.90;999.90;;;;;;;11.09;77.73;100643.53;10353001;28;20104;-64
2023/01/07 13:55:38;;;;;;;1999.90;999.90;;;;;;;11.33;80.66;100647.25;10334695;28;20501;-64
2023/01/07 14:00:42;;;;;;;1999.90;999.90;;;;;;;11.15;81.17;100640.53;10317280;28;20046;-64
2023/01/07 14:05:44;;;;;;;1999.90;999.90;;;;;;;11.23;81.03;100625.19;10331681;28;20054;-63
2023/01/07 14:10:51;;;;;;;1999.90;999.90;;;;;;;11.02;80.31;100614.25;10334687;28;20046;-64
2023/01/07 14:16:19;;;;;;;1999.90;999.90;;;;;;;11.05;81.22;100600.97;10333640;28;20062;-64
2023/01/07 14:21:35;;;;;;;1999.90;999.90;;;;;;;11.00;82.78;100591.72;10335339;28;20061;-63
2023/01/07 14:26:50;;;;;;;1999.90;999.90;;;;;;;11.04;81.71;100596.66;10335220;28;20058;-64
2023/01/07 14:32:26;;;;;;;1999.90;999.90;;;;;;;10.79;83.11;100584.22;10330923;28;20045;-64
2023/01/07 14:37:43;;;;;;;1999.90;999.90;;;;;;;10.72;83.25;100570.69;10293917;28;20065;-63
2023/01/07 14:42:46;;;;;;;1999.90;999.90;;;;;;;10.63;82.94;100580.91;10292705;28;20541;-64
2023/01/07 14:47:48;;;;;;;1999.90;999.90;;;;;;;10.62;84.57;100574.81;10317601;28;20054;-63
2023/01/07 14:53:14;;;;;;;1999.90;999.90;;;;;;;10.45;84.89;100575.00;10342315;28;20042;-63
2023/01/07 14:58:31;;;;;;;1999.90;999.90;;;;;;;10.38;84.41;100570.13;10322929;28;20453;-63
2023/01/07 15:03:49;;;;;;;1999.90;999.90;;;;;;;10.37;84.55;100563.22;10329017;28;20092;-63
2023/01/07 15:19:58;;;;;;;1999.90;999.90;;;;;;;10.34;84.52;100537.22;10332869;28;20057;-63
2023/01/07 15:25:09;;;;;;;1999.90;999.90;;;;;;;10.49;85.21;100531.97;10331619;28;20101;-63
2023/01/07 15:30:26;;;;;;;1999.90;999.90;;;;;;;10.32;84.46;100539.09;10332488;28;20046;-63
2023/01/07 15:35:33;;;;;;;1999.90;999.90;;;;;;;10.37;84.48;100530.94;10331657;28;20460;-63
2023/01/07 15:40:36;;;;;;;1999.90;999.90;;;;;;;10.16;86.57;100523.44;10332362;28;20047;-63
2023/01/07 15:45:39;;;;;;;1999.90;999.90;;;;;;;10.32;86.59;100518.19;10331683;28;20057;-63
2023/01/07 15:50:45;;;;;;;1999.90;999.90;;;;;;;10.13;86.01;100510.53;10331957;28;20050;-63
2023/01/07 15:56:05;;;;;;;1999.90;999.90;;;;;;;10.03;87.51;100498.94;10333660;28;20046;-63
2023/01/07 16:01:15;;;;;;;1999.90;999.90;;;;;;;9.94;88.69;100492.50;10338058;28;20113;-63
2023/01/07 16:06:29;;;;;;;1999.90;999.90;;;;;;;10.12;85.72;100503.66;10339151;28;20489;-64
2023/01/07 16:11:32;;;;;;;1999.90;999.90;;;;;;;10.00;86.29;100499.13;10339864;28;20643;-64
2023/01/07 16:16:34;;;;;;;1999.90;999.90;;;;;;;9.93;87.83;100484.75;10335946;28;20058;-64
2023/01/07 16:21:39;;;;;;;1999.90;999.90;;;;;;;9.94;88.37;100481.22;10339765;28;20050;-63
2023/01/07 16:27:04;;;;;;;1999.90;999.90;;;;;;;10.04;85.66;100483.16;10338520;28;20058;-63
2023/01/07 16:32:07;;;;;;;1999.90;999.90;;;;;;;9.97;86.47;100478.38;10338344;28;20061;-63
2023/01/07 16:37:15;;;;;;;1999.90;999.90;;;;;;;10.06;86.41;100471.78;10335529;28;20050;-63
2023/01/07 16:42:19;;;;;;;1999.90;999.90;;;;;;;9.94;87.75;100463.72;10317968;28;20042;-63
2023/01/07 16:47:23;;;;;;;1999.90;999.90;;;;;;;9.79;89.16;100456.81;10320200;28;20067;-63
2023/01/07 16:52:30;;;;;;;1999.90;999.90;;;;;;;9.91;89.29;100458.69;10338322;28;20132;-63
2023/01/07 16:57:40;;;;;;;1999.90;999.90;;;;;;;9.83;90.79;100460.91;10337146;28;20402;-63
2023/01/07 17:02:57;;;;;;;1999.90;999.90;;;;;;;9.69;92.96;100455.69;10334960;28;20046;-63
2023/01/07 17:08:03;;;;;;;1999.90;999.90;;;;;;;9.72;92.70;100458.13;10336087;28;20093;-63
2023/01/07 17:13:13;;;;;;;1999.90;999.90;;;;;;;9.59;96.49;100458.00;10336135;28;20409;-63
2023/01/07 17:18:15;;;;;;;1999.90;999.90;;;;;;;9.61;96.43;100456.13;10335549;28;20117;-64
2023/01/07 17:23:26;;;;;;;1999.90;999.90;;;;;;;9.52;97.81;100454.06;10333105;28;20053;-63
2023/01/07 17:28:32;;;;;;;1999.90;999.90;;;;;;;9.89;93.73;100455.31;10336383;28;20050;-63
2023/01/07 17:33:36;;;;;;;1999.90;999.90;;;;;;;9.64;95.82;100454.16;10334124;28;20046;-64
2023/01/07 17:38:38;;;;;;;1999.90;999.90;;;;;;;9.60;98.64;100444.81;10337029;28;20083;-63
2023/01/07 17:43:40;;;;;;;1999.90;999.90;;;;;;;9.44;100.00;100438.81;10336660;28;20046;-64
2023/01/07 17:48:43;;;;;;;1999.90;999.90;;;;;;;9.26;100.00;100438.97;10334189;28;20165;-63
2023/01/07 17:53:47;;;;;;;1999.90;999.90;;;;;;;9.23;100.00;100431.28;10333838;28;20490;-63
2023/01/07 17:58:50;;;;;;;1999.90;999.90;;;;;;;8.93;100.00;100431.28;10333963;28;20051;-64
2023/01/07 18:03:53;;;;;;;1999.90;999.90;;;;;;;9.17;100.00;100429.03;10333933;28;20121;-64
2023/01/07 18:08:55;;;;;;;1999.90;999.90;;;;;;;8.91;100.00;100418.31;10334995;28;20058;-63
2023/01/07 18:13:58;;;;;;;1999.90;999.90;;;;;;;9.02;100.00;100420.28;10341343;28;20038;-63
2023/01/07 18:19:00;;;;;;;1999.90;999.90;;;;;;;8.96;100.00;100409.34;10358586;28;20046;-64
2023/01/07 18:24:03;;;;;;;1999.90;999.90;;;;;;;8.97;100.00;100405.81;10334620;28;20101;-64
2023/01/07 18:29:05;;;;;;;1999.90;999.90;;;;;;;9.07;100.00;100393.91;10333268;28;20638;-63
2023/01/07 18:34:12;;;;;;;1999.90;999.90;;;;;;;9.23;100.00;100393.88;10334911;28;20054;-64
2023/01/07 18:39:16;;;;;;;1999.90;999.90;;;;;;;8.95;100.00;100387.63;10333034;28;20453;-63
2023/01/07 18:44:22;;;;;;;1999.90;999.90;;;;;;;9.01;100.00;100394.25;10331848;28;20054;-63
2023/01/07 18:49:24;;;;;;;1999.90;999.90;;;;;;;9.03;100.00;100387.22;10343429;28;20101;-63
2023/01/07 18:54:28;;;;;;;1999.90;999.90;;;;;;;8.83;100.00;100385.72;10332113;28;20457;-63
2023/01/07 18:59:30;;;;;;;1999.90;999.90;;;;;;;9.12;100.00;100384.03;10332616;28;20047;-64
2023/01/07 19:04:36;;;;;;;1999.90;999.90;;;;;;;8.93;100.00;100377.28;10333431;28;20046;-63
2023/01/07 19:09:38;;;;;;;1999.90;999.90;;;;;;;9.01;100.00;100383.81;10332204;28;20050;-64
2023/01/07 19:14:41;;;;;;;1999.90;999.90;;;;;;;9.03;100.00;100385.44;10338111;28;20054;-64
2023/01/07 19:19:43;;;;;;;1999.90;999.90;;;;;;;9.03;100.00;100379.38;10346403;28;20057;-64
2023/01/07 19:24:50;;;;;;;1999.90;999.90;;;;;;;9.11;100.00;100379.75;10342863;28;20136;-64
2023/01/07 19:29:52;;;;;;;1999.90;999.90;;;;;;;9.26;100.00;100365.81;10349868;28;20046;-64
2023/01/07 19:34:54;;;;;;;1999.90;999.90;;;;;;;9.40;100.00;100366.78;10360775;28;20054;-64
2023/01/07 19:39:57;;;;;;;1999.90;999.90;;;;;;;9.34;100.00;100364.50;10341446;28;20133;-64
2023/01/07 19:44:59;;;;;;;1999.90;999.90;;;;;;;9.32;100.00;100363.78;10338099;28;20046;-64
2023/01/07 19:50:02;;;;;;;1999.90;999.90;;;;;;;9.29;100.00;100349.09;10350844;28;20592;-64
2023/01/07 19:55:05;;;;;;;1999.90;999.90;;;;;;;9.34;100.00;100338.38;10361325;28;20046;-63
2023/01/07 20:00:08;;;;;;;1999.90;999.90;;;;;;;9.49;100.00;100330.47;10340787;28;20093;-64
2023/01/07 20:05:10;;;;;;;1999.90;999.90;;;;;;;9.49;100.00;100345.31;10338937;28;20046;-64
2023/01/07 20:10:13;;;;;;;1999.90;999.90;;;;;;;9.61;100.00;100343.72;10372071;28;20097;-64
2023/01/07 20:15:15;;;;;;;1999.90;999.90;;;;;;;9.61;100.00;100333.28;10350257;28;20058;-64
2023/01/07 20:20:18;;;;;;;1999.90;999.90;;;;;;;9.58;100.00;100333.44;10339431;28;20425;-64
2023/01/07 20:25:20;;;;;;;1999.90;999.90;;;;;;;9.55;100.00;100341.47;10338703;28;20050;-64
2023/01/07 20:30:22;;;;;;;1999.90;999.90;;;;;;;9.68;100.00;100337.19;10338680;28;20047;-64
2023/01/07 20:35:25;;;;;;;1999.90;999.90;;;;;;;9.62;100.00;100342.81;10336425;28;20067;-64
2023/01/07 20:40:27;;;;;;;1999.90;999.90;;;;;;;9.62;100.00;100335.78;10338448;28;20092;-64
2023/01/07 20:45:29;;;;;;;1999.90;999.90;;;;;;;9.72;100.00;100330.03;10339077;28;20061;-64
2023/01/07 20:50:34;;;;;;;1999.90;999.90;;;;;;;9.83;100.00;100332.78;10337295;28;20482;-64
2023/01/07 20:55:36;;;;;;;1999.90;999.90;;;;;;;9.70;100.00;100322.28;10336050;28;20046;-64
2023/01/07 21:00:39;;;;;;;1999.90;999.90;;;;;;;9.65;100.00;100319.94;10337061;28;20046;-64
2023/01/07 21:05:44;;;;;;;1999.90;999.90;;;;;;;9.65;100.00;100319.94;10337395;28;20054;-64
2023/01/07 21:10:47;;;;;;;1999.90;999.90;;;;;;;9.70;100.00;100300.50;10337489;28;20050;-64
2023/01/07 21:15:49;;;;;;;1999.90;999.90;;;;;;;9.69;100.00;100311.91;10336955;28;20047;-64
2023/01/07 21:20:51;;;;;;;1999.90;999.90;;;;;;;9.60;100.00;100316.75;10335976;28;20101;-64
2023/01/07 21:25:54;;;;;;;1999.90;999.90;;;;;;;9.64;100.00;100314.78;10336635;28;20050;-64
2023/01/07 21:31:04;;;;;;;1999.90;999.90;;;;;;;9.67;100.00;100319.84;10336705;28;20441;-64
2023/01/07 21:36:11;;;;;;;1999.90;999.90;;;;;;;9.78;100.00;100329.63;10333131;28;20082;-64
2023/01/07 21:41:16;;;;;;;1999.90;999.90;;;;;;;9.86;100.00;100330.81;10334787;28;20057;-64
2023/01/07 21:46:21;;;;;;;1999.90;999.90;;;;;;;9.79;100.00;100323.47;10334963;28;20054;-64
2023/01/07 21:51:25;;;;;;;1999.90;999.90;;;;;;;9.80;100.00;100312.06;10336397;28;20061;-64
2023/01/07 21:56:31;;;;;;;1999.90;999.90;;;;;;;9.73;100.00;100310.75;10333841;28;20101;-64
2023/01/07 22:01:34;;;;;;;1999.90;999.90;;;;;;;9.67;100.00;100301.53;10335878;28;20383;-64
2023/01/07 22:06:36;;;;;;;1999.90;999.90;;;;;;;9.71;100.00;100303.03;10334826;28;20054;-64
2023/01/07 22:11:40;;;;;;;1999.90;999.90;;;;;;;9.71;100.00;100305.63;10334493;28;20054;-64
2023/01/07 22:16:42;;;;;;;1999.90;999.90;;;;;;;9.70;100.00;100309.19;10332890;28;20053;-64
2023/01/07 22:21:46;;;;;;;1999.90;999.90;;;;;;;9.72;100.00;100309.94;10334605;28;20046;-64
2023/01/07 22:26:48;;;;;;;1999.90;999.90;;;;;;;9.62;100.00;100327.13;10335150;28;20051;-64